createdAt,value
2023-02-11T00:01:47.823Z,-2.48
2023-02-11T00:04:14.595Z,-2.51
2023-02-11T00:06:41.350Z,-2.49
2023-02-11T00:09:09.272Z,-2.52
2023-02-11T00:11:36.382Z,-2.51
2023-02-11T00:14:04.118Z,-2.49
2023-02-11T00:16:31.517Z,-2.47
2023-02-11T00:19:00.855Z,-2.46
2023-02-11T00:21:27.610Z,-2.55
2023-02-11T00:23:54.257Z,-2.58
2023-02-11T00:26:20.997Z,-2.58
2023-02-11T00:28:47.359Z,-2.60
2023-02-11T00:31:13.847Z,-2.64
2023-02-11T00:33:40.318Z,-2.65
2023-02-11T00:36:06.713Z,-2.71
2023-02-11T00:38:33.129Z,-2.75
2023-02-11T00:40:59.471Z,-2.77
2023-02-11T00:43:25.864Z,-2.80
2023-02-11T00:45:55.082Z,-2.79
2023-02-11T00:48:21.451Z,-2.78
2023-02-11T00:50:50.175Z,-2.77
2023-02-11T00:53:16.777Z,-2.80
2023-02-11T00:55:45.833Z,-2.82
2023-02-11T00:58:12.436Z,-2.86
2023-02-11T01:00:39.445Z,-2.89
2023-02-11T01:03:05.911Z,-2.91
2023-02-11T01:05:32.377Z,-2.94
2023-02-11T01:07:58.842Z,-2.94
2023-02-11T01:10:25.211Z,-3.00
2023-02-11T01:12:51.680Z,-3.01
2023-02-11T01:15:18.079Z,-3.03
2023-02-11T01:17:44.805Z,-3.02
2023-02-11T01:20:11.210Z,-3.04
2023-02-11T01:22:37.619Z,-3.08
2023-02-11T01:25:06.012Z,-3.13
2023-02-11T01:27:32.395Z,-3.14
2023-02-11T01:29:58.915Z,-3.19
2023-02-11T01:32:25.737Z,-3.20
2023-02-11T01:34:52.131Z,-3.16
2023-02-11T01:37:18.735Z,-3.14
2023-02-11T01:39:45.110Z,-3.13
2023-02-11T01:42:13.692Z,-3.16
2023-02-11T01:44:41.076Z,-3.20
2023-02-11T01:47:07.439Z,-3.16
2023-02-11T01:49:33.841Z,-3.13
2023-02-11T01:52:02.146Z,-3.17
2023-02-11T01:54:28.537Z,-3.09
2023-02-11T01:56:55.302Z,-3.06
2023-02-11T01:59:21.694Z,-3.02
2023-02-11T02:01:48.127Z,-3.00
2023-02-11T02:04:14.488Z,-2.98
2023-02-11T02:06:41.425Z,-3.00
2023-02-11T02:09:07.883Z,-2.97
2023-02-11T02:11:34.268Z,-2.99
2023-02-11T02:14:00.669Z,-2.98
2023-02-11T02:16:29.471Z,-3.00
2023-02-11T02:18:57.880Z,-3.02
2023-02-11T02:21:25.838Z,-3.08
2023-02-11T02:23:56.549Z,-3.11
2023-02-11T02:26:23.117Z,-3.15
2023-02-11T02:28:49.500Z,-3.23
2023-02-11T02:31:15.881Z,-3.26
2023-02-11T02:33:42.281Z,-3.27
2023-02-11T02:36:08.664Z,-3.33
2023-02-11T02:38:35.064Z,-3.38
2023-02-11T02:41:01.470Z,-3.41
2023-02-11T02:43:28.074Z,-3.45
2023-02-11T02:45:55.663Z,-3.46
2023-02-11T02:48:22.230Z,-3.45
2023-02-11T02:50:48.661Z,-3.45
2023-02-11T02:53:18.089Z,-3.54
2023-02-11T02:55:45.123Z,-3.58
2023-02-11T02:58:14.300Z,-3.64
2023-02-11T03:00:43.804Z,-3.61
2023-02-11T03:03:10.317Z,-3.59
2023-02-11T03:05:36.700Z,-3.59
2023-02-11T03:08:03.119Z,-3.60
2023-02-11T03:10:30.501Z,-3.59
2023-02-11T03:12:56.980Z,-3.59
2023-02-11T03:15:23.355Z,-3.59
2023-02-11T03:17:49.736Z,-3.56
2023-02-11T03:20:16.137Z,-3.55
2023-02-11T03:22:42.853Z,-3.52
2023-02-11T03:25:09.601Z,-3.53
2023-02-11T03:27:36.016Z,-3.50
2023-02-11T03:30:02.411Z,-3.55
2023-02-11T03:32:28.762Z,-3.52
2023-02-11T03:34:55.408Z,-3.57
2023-02-11T03:37:21.770Z,-3.58
2023-02-11T03:39:48.283Z,-3.57
2023-02-11T03:42:15.679Z,-3.52
2023-02-11T03:44:42.103Z,-3.54
2023-02-11T03:47:09.205Z,-3.60
2023-02-11T03:49:35.579Z,-3.63
2023-02-11T03:52:01.922Z,-3.63
2023-02-11T03:54:28.325Z,-3.61
2023-02-11T03:56:54.666Z,-3.58
2023-02-11T03:59:21.043Z,-3.59
2023-02-11T04:01:49.486Z,-3.59
2023-02-11T04:04:15.916Z,-3.59
2023-02-11T04:06:42.380Z,-3.57
2023-02-11T04:09:08.772Z,-3.59
2023-02-11T04:11:35.387Z,-3.62
2023-02-11T04:14:02.201Z,-3.65
2023-02-11T04:16:28.668Z,-3.68
2023-02-11T04:18:55.095Z,-3.68
2023-02-11T04:21:26.242Z,-3.73
2023-02-11T04:23:53.074Z,-3.81
2023-02-11T04:26:19.522Z,-3.82
2023-02-11T04:28:46.255Z,-3.82
2023-02-11T04:31:14.692Z,-3.83
2023-02-11T04:33:42.108Z,-3.83
2023-02-11T04:36:08.737Z,-3.91
2023-02-11T04:38:35.837Z,-3.92
2023-02-11T04:41:02.195Z,-3.93
2023-02-11T04:43:28.599Z,-3.89
2023-02-11T04:45:55.205Z,-3.86
2023-02-11T04:48:21.728Z,-3.81
2023-02-11T04:50:48.122Z,-3.80
2023-02-11T04:53:15.539Z,-3.76
2023-02-11T04:55:42.077Z,-3.72
2023-02-11T04:58:08.547Z,-3.68
2023-02-11T05:00:34.949Z,-3.64
2023-02-11T05:03:01.568Z,-3.69
2023-02-11T05:05:28.209Z,-3.73
2023-02-11T05:07:54.923Z,-3.74
2023-02-11T05:10:21.302Z,-3.83
2023-02-11T05:12:49.862Z,-3.86
2023-02-11T05:15:19.813Z,-3.89
2023-02-11T05:17:46.278Z,-3.86
2023-02-11T05:20:12.671Z,-3.90
2023-02-11T05:22:39.104Z,-3.95
2023-02-11T05:25:05.820Z,-3.98
2023-02-11T05:27:32.328Z,-3.99
2023-02-11T05:29:58.854Z,-3.97
2023-02-11T05:32:25.278Z,-3.99
2023-02-11T05:34:51.922Z,-4.03
2023-02-11T05:37:18.354Z,-4.05
2023-02-11T05:39:44.740Z,-4.02
2023-02-11T05:42:11.116Z,-4.06
2023-02-11T05:44:37.986Z,-4.06
2023-02-11T05:47:05.053Z,-4.09
2023-02-11T05:49:31.528Z,-4.05
2023-02-11T05:51:57.919Z,-4.07
2023-02-11T05:54:24.304Z,-4.23
2023-02-11T05:56:50.809Z,-4.32
2023-02-11T05:59:17.159Z,-4.29
2023-02-11T06:01:43.501Z,-4.25
2023-02-11T06:04:09.912Z,-4.21
2023-02-11T06:06:36.468Z,-4.20
2023-02-11T06:09:02.901Z,-4.19
2023-02-11T06:11:29.324Z,-4.17
2023-02-11T06:13:55.682Z,-4.11
2023-02-11T06:16:22.155Z,-4.08
2023-02-11T06:18:48.566Z,-3.99
2023-02-11T06:21:15.269Z,-3.95
2023-02-11T06:23:41.649Z,-4.00
2023-02-11T06:26:08.044Z,-4.09
2023-02-11T06:28:36.610Z,-4.14
2023-02-11T06:31:03.110Z,-4.15
2023-02-11T06:33:29.782Z,-4.14
2023-02-11T06:35:56.460Z,-4.16
2023-02-11T06:38:22.836Z,-4.19
2023-02-11T06:40:49.174Z,-4.22
2023-02-11T06:43:16.571Z,-4.20
2023-02-11T06:45:42.929Z,-4.21
2023-02-11T06:48:09.323Z,-4.20
2023-02-11T06:50:36.145Z,-4.20
2023-02-11T06:53:02.479Z,-4.22
2023-02-11T06:55:28.826Z,-4.20
2023-02-11T06:57:55.227Z,-4.17
2023-02-11T07:00:21.605Z,-4.24
2023-02-11T07:02:48.104Z,-4.19
2023-02-11T07:05:14.629Z,-4.16
2023-02-11T07:07:41.012Z,-4.08
2023-02-11T07:10:09.226Z,-4.08
2023-02-11T07:12:43.165Z,-4.10
2023-02-11T07:15:09.903Z,-4.12
2023-02-11T07:17:37.397Z,-4.07
2023-02-11T07:20:04.698Z,-4.02
2023-02-11T07:22:31.160Z,-3.97
2023-02-11T07:24:57.640Z,-3.93
2023-02-11T07:27:24.018Z,-3.89
2023-02-11T07:29:50.433Z,-3.84
2023-02-11T07:32:16.939Z,-3.81
2023-02-11T07:34:43.445Z,-3.75
2023-02-11T07:37:10.293Z,-3.73
2023-02-11T07:39:38.889Z,-3.69
2023-02-11T07:42:05.282Z,-3.69
2023-02-11T07:44:31.638Z,-3.67
2023-02-11T07:46:58.048Z,-3.66
2023-02-11T07:49:24.457Z,-3.62
2023-02-11T07:51:50.799Z,-3.60
2023-02-11T07:54:17.178Z,-3.54
2023-02-11T07:56:43.540Z,-3.52
2023-02-11T07:59:12.326Z,-3.37
2023-02-11T08:01:38.696Z,-3.36
2023-02-11T08:04:05.202Z,-3.34
2023-02-11T08:06:31.900Z,-3.33
2023-02-11T08:09:00.347Z,-3.31
2023-02-11T08:11:26.704Z,-3.24
2023-02-11T08:13:53.102Z,-3.08
2023-02-11T08:16:19.508Z,-2.96
2023-02-11T08:18:45.977Z,-2.96
2023-02-11T08:21:13.786Z,-2.92
2023-02-11T08:23:40.161Z,-2.83
2023-02-11T08:26:07.393Z,-2.66
2023-02-11T08:28:33.848Z,-2.55
2023-02-11T08:31:02.338Z,-2.49
2023-02-11T08:33:28.739Z,-2.56
2023-02-11T08:35:55.506Z,-2.49
2023-02-11T08:38:23.204Z,-2.39
2023-02-11T08:40:49.879Z,-2.29
2023-02-11T08:43:16.429Z,-2.16
2023-02-11T08:45:42.835Z,-1.97
2023-02-11T08:48:10.627Z,-1.78
2023-02-11T08:50:37.310Z,-1.62
2023-02-11T08:53:03.657Z,-1.47
2023-02-11T08:55:31.059Z,-1.29
2023-02-11T08:57:57.898Z,-1.13
2023-02-11T09:00:24.320Z,-0.97
2023-02-11T09:02:50.725Z,-0.79
2023-02-11T09:05:19.230Z,-0.69
2023-02-11T09:07:45.627Z,-0.58
2023-02-11T09:10:12.244Z,-0.45
2023-02-11T09:12:38.635Z,-0.30
2023-02-11T09:15:05.028Z,-0.13
2023-02-11T09:17:31.384Z,0.12
2023-02-11T09:19:58.997Z,0.23
2023-02-11T09:22:25.330Z,0.31
2023-02-11T09:24:51.713Z,0.36
2023-02-11T09:27:20.400Z,0.55
2023-02-11T09:29:46.762Z,0.62
2023-02-11T09:32:14.225Z,0.77
2023-02-11T09:34:40.708Z,0.88
2023-02-11T09:37:07.099Z,1.01
2023-02-11T09:39:33.501Z,1.15
2023-02-11T09:42:00.023Z,1.33
2023-02-11T09:44:26.544Z,1.51
2023-02-11T09:46:52.934Z,1.70
2023-02-11T09:49:19.330Z,1.83
2023-02-11T09:51:45.695Z,1.94
2023-02-11T09:54:12.334Z,2.17
2023-02-11T09:56:38.717Z,2.29
2023-02-11T09:59:05.071Z,2.50
2023-02-11T10:01:31.868Z,2.62
2023-02-11T10:03:58.285Z,2.73
2023-02-11T10:06:25.724Z,2.78
2023-02-11T10:08:52.112Z,2.97
2023-02-11T10:11:31.200Z,3.15
2023-02-11T10:14:03.307Z,3.37
2023-02-11T10:16:29.648Z,3.43
2023-02-11T10:18:55.995Z,3.44
2023-02-11T10:21:22.354Z,3.43
2023-02-11T10:23:48.749Z,3.29
2023-02-11T10:26:17.882Z,3.29
2023-02-11T10:28:45.049Z,3.19
2023-02-11T10:31:15.913Z,3.20
2023-02-11T10:33:43.203Z,3.40
2023-02-11T10:36:09.598Z,3.55
2023-02-11T10:38:35.954Z,3.47
2023-02-11T10:41:02.308Z,3.51
2023-02-11T10:43:28.961Z,3.65
2023-02-11T10:45:55.354Z,3.83
2023-02-11T10:48:21.835Z,4.13
2023-02-11T10:50:50.784Z,4.49
2023-02-11T10:53:22.921Z,4.68
2023-02-11T10:55:49.322Z,4.78
2023-02-11T10:58:15.741Z,4.94
2023-02-11T11:00:42.125Z,5.02
2023-02-11T11:03:08.488Z,5.15
2023-02-11T11:05:34.863Z,5.31
2023-02-11T11:08:01.261Z,5.37
2023-02-11T11:10:27.667Z,5.44
2023-02-11T11:12:54.291Z,5.53
2023-02-11T11:15:20.654Z,5.49
2023-02-11T11:17:47.049Z,5.57
2023-02-11T11:20:13.447Z,5.51
2023-02-11T11:22:39.805Z,5.53
2023-02-11T11:25:13.336Z,5.50
2023-02-11T11:27:39.775Z,5.63
2023-02-11T11:30:06.168Z,5.59
2023-02-11T11:32:32.677Z,5.53
2023-02-11T11:35:01.897Z,5.68
2023-02-11T11:37:28.353Z,5.68
2023-02-11T11:39:54.820Z,5.80
2023-02-11T11:42:21.207Z,5.93
2023-02-11T11:44:48.242Z,6.08
2023-02-11T11:47:14.659Z,6.17
2023-02-11T11:49:41.046Z,6.30
2023-02-11T11:52:09.143Z,6.37
2023-02-11T11:54:35.712Z,6.50
2023-02-11T11:57:06.382Z,6.52
2023-02-11T11:59:32.739Z,6.55
2023-02-11T12:02:00.235Z,6.57
2023-02-11T12:04:26.685Z,6.36
2023-02-11T12:06:53.044Z,6.34
2023-02-11T12:09:19.413Z,6.39
2023-02-11T12:11:46.831Z,6.51
2023-02-11T12:14:13.241Z,6.59
2023-02-11T12:16:39.632Z,6.70
2023-02-11T12:19:06.041Z,6.81
2023-02-11T12:21:43.700Z,6.97
2023-02-11T12:24:22.755Z,7.04
2023-02-11T12:26:49.140Z,7.12
2023-02-11T12:29:15.536Z,7.25
2023-02-11T12:31:41.963Z,7.29
2023-02-11T12:34:09.281Z,7.32
2023-02-11T12:36:35.680Z,7.41
2023-02-11T12:39:02.254Z,7.39
2023-02-11T12:41:29.838Z,7.45
2023-02-11T12:43:56.258Z,7.52
2023-02-11T12:46:26.707Z,7.30
2023-02-11T12:48:55.711Z,7.44
2023-02-11T12:51:22.098Z,7.47
2023-02-11T12:53:48.439Z,7.49
2023-02-11T12:56:15.136Z,7.59
2023-02-11T12:58:45.699Z,7.61
2023-02-11T13:01:12.365Z,7.62
2023-02-11T13:03:38.753Z,7.61
2023-02-11T13:06:05.311Z,7.65
2023-02-11T13:08:31.719Z,7.59
2023-02-11T13:10:58.190Z,7.65
2023-02-11T13:16:05.258Z,7.83
2023-02-11T13:18:31.876Z,7.93
2023-02-11T13:20:58.535Z,7.98
2023-02-11T13:23:24.901Z,8.06
2023-02-11T13:25:51.330Z,8.13
2023-02-11T13:28:18.009Z,8.27
2023-02-11T13:30:44.723Z,8.28
2023-02-11T13:33:11.394Z,8.30
2023-02-11T13:35:37.780Z,8.26
2023-02-11T13:38:04.349Z,8.31
2023-02-11T13:40:36.731Z,8.30
2023-02-11T13:43:03.196Z,8.31
2023-02-11T13:45:29.539Z,8.29
2023-02-11T13:47:55.929Z,8.33
2023-02-11T13:50:22.406Z,8.35
2023-02-11T13:52:48.958Z,8.39
2023-02-11T13:55:15.440Z,8.40
2023-02-11T13:57:42.510Z,8.41
2023-02-11T14:00:09.188Z,8.43
2023-02-11T14:02:36.321Z,8.43
2023-02-11T14:05:02.801Z,8.52
2023-02-11T14:07:29.169Z,8.67
2023-02-11T14:09:55.657Z,8.79
2023-02-11T14:12:24.284Z,8.90
2023-02-11T14:14:51.029Z,8.90
2023-02-11T14:17:17.478Z,8.98
2023-02-11T14:19:45.176Z,9.10
2023-02-11T14:22:11.547Z,9.16
2023-02-11T14:24:38.249Z,9.25
2023-02-11T14:27:04.816Z,9.28
2023-02-11T14:29:31.328Z,9.34
2023-02-11T14:31:57.791Z,9.34
2023-02-11T14:34:26.672Z,9.42
2023-02-11T14:36:53.723Z,9.39
2023-02-11T14:39:20.209Z,9.52
2023-02-11T14:41:46.802Z,9.44
2023-02-11T14:44:13.273Z,9.52
2023-02-11T14:46:39.693Z,9.56
2023-02-11T14:49:06.424Z,9.58
2023-02-11T14:51:32.924Z,9.59
2023-02-11T14:53:59.361Z,9.60
2023-02-11T14:56:25.877Z,9.60
2023-02-11T14:58:52.460Z,9.62
2023-02-11T15:01:18.846Z,9.64
2023-02-11T15:03:45.599Z,9.64
2023-02-11T15:06:14.726Z,9.66
2023-02-11T15:08:41.732Z,9.70
2023-02-11T15:11:08.079Z,9.74
2023-02-11T15:13:34.683Z,9.81
2023-02-11T15:16:01.119Z,9.82
2023-02-11T15:18:27.501Z,9.89
2023-02-11T15:20:54.081Z,9.88
2023-02-11T15:23:20.576Z,9.86
2023-02-11T15:25:46.920Z,9.82
2023-02-11T15:28:13.326Z,9.84
2023-02-11T15:30:39.693Z,9.66
2023-02-11T15:33:06.113Z,9.64
2023-02-11T15:35:32.464Z,9.70
2023-02-11T15:37:58.807Z,9.74
2023-02-11T15:40:25.149Z,9.76
2023-02-11T15:42:53.577Z,9.70
2023-02-11T15:45:20.558Z,9.61
2023-02-11T15:47:46.891Z,9.53
2023-02-11T15:50:13.227Z,9.58
2023-02-11T15:52:39.598Z,8.89
2023-02-11T15:55:05.946Z,8.70
2023-02-11T15:57:32.304Z,8.72
2023-02-11T15:59:58.712Z,8.74
2023-02-11T16:02:25.106Z,8.77
2023-02-11T16:04:51.470Z,8.74
2023-02-11T16:07:17.853Z,8.67
2023-02-11T16:09:44.239Z,8.61
2023-02-11T16:12:10.633Z,8.53
2023-02-11T16:14:37.034Z,8.60
2023-02-11T16:17:04.372Z,8.78
2023-02-11T16:19:30.708Z,8.73
2023-02-11T16:21:57.051Z,8.72
2023-02-11T16:24:26.615Z,8.61
2023-02-11T16:26:56.300Z,8.44
2023-02-11T16:29:25.852Z,8.30
2023-02-11T16:31:52.352Z,8.06
2023-02-11T16:34:18.808Z,7.85
2023-02-11T16:36:45.386Z,7.67
2023-02-11T16:39:11.725Z,7.52
2023-02-11T16:41:38.355Z,7.26
2023-02-11T16:44:04.725Z,7.16
2023-02-11T16:46:31.166Z,7.08
2023-02-11T16:48:57.682Z,6.92
2023-02-11T16:51:24.269Z,6.70
2023-02-11T16:53:51.654Z,6.53
2023-02-11T16:56:18.072Z,6.37
2023-02-11T16:58:44.638Z,6.27
2023-02-11T17:01:13.522Z,6.17
2023-02-11T17:03:41.651Z,6.05
2023-02-11T17:06:08.022Z,5.90
2023-02-11T17:08:36.879Z,5.79
2023-02-11T17:11:03.263Z,5.70
2023-02-11T17:13:29.681Z,5.61
2023-02-11T17:15:56.437Z,5.49
2023-02-11T17:18:22.841Z,5.39
2023-02-11T17:20:49.232Z,5.28
2023-02-11T17:23:15.621Z,5.19
2023-02-11T17:25:45.266Z,5.11
2023-02-11T17:28:11.734Z,5.01
2023-02-11T17:30:38.370Z,4.91
2023-02-11T17:33:04.775Z,4.86
2023-02-11T17:35:32.432Z,4.78
2023-02-11T17:37:59.022Z,4.71
2023-02-11T17:40:25.745Z,4.62
2023-02-11T17:42:52.211Z,4.54
2023-02-11T17:45:21.180Z,4.42
2023-02-11T17:47:48.729Z,4.30
2023-02-11T17:50:15.088Z,4.19
2023-02-11T17:52:41.426Z,4.10
2023-02-11T17:55:08.074Z,4.03
2023-02-11T17:57:34.829Z,3.94
2023-02-11T18:00:01.483Z,3.87
2023-02-11T18:02:27.931Z,3.79
2023-02-11T18:04:54.410Z,3.74
2023-02-11T18:07:23.664Z,3.71
2023-02-11T18:09:50.022Z,3.63
2023-02-11T18:12:24.333Z,3.57
2023-02-11T18:14:50.912Z,3.50
2023-02-11T18:17:17.789Z,3.42
2023-02-11T18:19:46.922Z,3.33
2023-02-11T18:22:13.814Z,3.24
2023-02-11T18:24:40.302Z,3.12
2023-02-11T18:27:07.123Z,2.94
2023-02-11T18:29:35.856Z,2.83
2023-02-11T18:45:33.452Z,2.31
2023-02-11T18:56:34.672Z,1.92
2023-02-11T18:59:01.096Z,1.86
2023-02-11T19:01:28.267Z,1.84
2023-02-11T19:03:55.461Z,1.84
2023-02-11T19:06:22.951Z,1.80
2023-02-11T19:08:50.342Z,1.77
2023-02-11T19:11:16.985Z,1.73
2023-02-11T19:13:43.635Z,1.71
2023-02-11T19:16:11.458Z,1.63
2023-02-11T19:18:39.144Z,1.61
2023-02-11T19:21:05.819Z,1.54
2023-02-11T19:23:32.224Z,1.54
2023-02-11T19:25:58.923Z,1.56
2023-02-11T19:28:29.712Z,1.55
2023-02-11T20:21:29.739Z,0.83
2023-02-11T20:23:58.928Z,0.80
2023-02-11T20:26:26.296Z,0.80
2023-02-11T20:58:58.700Z,0.22
2023-02-11T21:04:15.581Z,0.16
2023-02-11T23:10:51.351Z,-0.71
2023-02-11T23:13:17.712Z,-0.70
2023-02-11T23:15:44.352Z,-0.69
2023-02-11T23:18:10.711Z,-0.69
2023-02-11T23:20:37.342Z,-0.71
2023-02-11T23:23:03.712Z,-0.69
2023-02-11T23:25:33.216Z,-0.66
2023-02-11T23:28:02.117Z,-0.64
2023-02-11T23:30:29.351Z,-0.61
2023-02-11T23:33:00.196Z,-0.58
2023-02-11T23:35:27.755Z,-0.63
2023-02-11T23:37:54.137Z,-0.69
2023-02-11T23:40:20.491Z,-0.74
2023-02-11T23:42:49.022Z,-0.75
2023-02-11T23:45:15.717Z,-0.74
2023-02-11T23:47:42.526Z,-0.73
2023-02-11T23:50:11.928Z,-0.71
2023-02-11T23:52:40.668Z,-0.72
2023-02-11T23:55:08.375Z,-0.75
2023-02-11T23:57:34.794Z,-0.79
